createdAt,value
2022-08-07T00:02:37.155Z,95466.31
2022-08-07T00:04:53.346Z,95457.78
2022-08-07T00:07:19.733Z,95460.66
2022-08-07T00:09:59.262Z,95455.91
2022-08-07T00:12:33.857Z,95461.56
2022-08-07T00:15:00.220Z,95445.75
2022-08-07T00:17:26.788Z,95453.22
2022-08-07T00:20:01.578Z,95445.00
2022-08-07T00:22:35.219Z,95442.09
2022-08-07T00:25:02.733Z,95440.94
2022-08-07T00:27:51.637Z,95447.72
2022-08-07T00:30:26.694Z,95440.47
2022-08-07T00:32:54.673Z,95430.97
2022-08-07T00:35:21.031Z,95430.44
2022-08-07T00:37:49.534Z,95432.22
2022-08-07T00:40:17.194Z,95429.72
2022-08-07T00:43:03.531Z,95437.31
2022-08-07T00:45:36.439Z,95443.47
2022-08-07T00:48:18.456Z,95437.47
2022-08-07T00:50:50.325Z,95432.63
2022-08-07T00:53:17.320Z,95435.72
2022-08-07T00:56:03.207Z,95437.31
2022-08-07T00:58:30.180Z,95423.31
2022-08-07T01:00:56.540Z,95424.22
2022-08-07T01:03:54.764Z,95422.03
2022-08-07T01:06:09.283Z,95413.31
2022-08-07T01:08:35.654Z,95415.44
2022-08-07T01:11:10.771Z,95413.38
2022-08-07T01:13:56.046Z,95410.47
2022-08-07T01:16:30.450Z,95403.75
2022-08-07T01:18:57.148Z,95403.00
2022-08-07T01:21:26.125Z,95410.69
2022-08-07T01:23:53.858Z,95409.09
2022-08-07T01:26:20.323Z,95402.50
2022-08-07T01:28:48.360Z,95407.09
2022-08-07T01:31:15.409Z,95412.22
2022-08-07T01:33:56.355Z,95415.22
2022-08-07T01:36:33.514Z,95419.47
2022-08-07T01:39:09.421Z,95420.38
2022-08-07T01:41:36.647Z,95430.06
2022-08-07T01:44:04.767Z,95424.00
2022-08-07T01:46:31.310Z,95433.16
2022-08-07T01:48:57.918Z,95432.72
2022-08-07T01:52:02.399Z,95429.53
2022-08-07T01:54:32.563Z,95426.59
2022-08-07T01:56:59.007Z,95420.59
2022-08-07T01:59:31.101Z,95419.69
2022-08-07T02:02:01.966Z,95427.66
2022-08-07T02:04:30.722Z,95429.34
2022-08-07T02:06:57.115Z,95426.44
2022-08-07T02:09:52.279Z,95436.06
2022-08-07T02:12:09.830Z,95432.63
2022-08-07T02:14:40.727Z,95423.84
2022-08-07T02:17:07.574Z,95430.44
2022-08-07T02:20:06.853Z,95431.91
2022-08-07T02:22:20.295Z,95431.50
2022-08-07T02:24:46.803Z,95427.34
2022-08-07T02:27:14.918Z,95422.78
2022-08-07T02:29:48.648Z,95417.00
2022-08-07T02:32:23.420Z,95413.81
2022-08-07T02:34:53.400Z,95412.06
2022-08-07T02:37:19.768Z,95416.09
2022-08-07T02:40:02.382Z,95412.56
2022-08-07T02:42:32.448Z,95402.78
2022-08-07T02:44:58.793Z,95404.28
2022-08-07T02:47:25.817Z,95400.94
2022-08-07T02:49:59.103Z,95417.38
2022-08-07T02:52:31.057Z,95410.34
2022-08-07T02:54:58.793Z,95412.56
2022-08-07T02:57:30.858Z,95408.44
2022-08-07T03:00:01.196Z,95400.03
2022-08-07T03:02:31.179Z,95397.88
2022-08-07T03:04:58.786Z,95394.66
2022-08-07T03:07:43.083Z,95385.88
2022-08-07T03:10:11.490Z,95387.09
2022-08-07T03:12:40.703Z,95384.59
2022-08-07T03:15:07.491Z,95379.13
2022-08-07T03:17:36.303Z,95378.00
2022-08-07T03:20:19.436Z,95369.69
2022-08-07T03:22:50.287Z,95371.59
2022-08-07T03:25:16.844Z,95373.63
2022-08-07T03:27:59.175Z,95377.28
2022-08-07T03:30:33.902Z,95371.28
2022-08-07T03:33:00.960Z,95369.69
2022-08-07T03:35:27.425Z,95371.19
2022-08-07T03:38:10.569Z,95370.94
2022-08-07T03:40:39.793Z,95375.69
2022-08-07T03:43:13.794Z,95367.84
2022-08-07T03:45:43.528Z,95366.66
2022-08-07T03:48:13.816Z,95369.56
2022-08-07T03:50:40.166Z,95365.38
2022-08-07T03:53:18.361Z,95369.78
2022-08-07T03:56:03.921Z,95366.84
2022-08-07T03:59:05.643Z,95364.81
2022-08-07T04:01:16.957Z,95363.09
2022-08-07T04:03:49.784Z,95361.44
2022-08-07T04:06:37.364Z,95357.84
2022-08-07T04:09:04.893Z,95358.03
2022-08-07T04:12:26.964Z,95363.09
2022-08-07T04:14:38.817Z,95358.34
2022-08-07T04:17:04.358Z,95362.38
2022-08-07T04:19:52.440Z,95364.09
2022-08-07T04:22:22.936Z,95365.72
2022-08-07T04:24:49.478Z,95359.28
2022-08-07T04:27:25.304Z,95363.03
2022-08-07T04:30:01.808Z,95368.28
2022-08-07T04:32:33.907Z,95368.28
2022-08-07T04:35:01.419Z,95373.06
2022-08-07T04:37:30.386Z,95369.91
2022-08-07T04:40:16.723Z,95377.41
2022-08-07T04:42:46.041Z,95382.22
2022-08-07T04:45:22.725Z,95378.53
2022-08-07T04:48:05.060Z,95385.06
2022-08-07T04:50:37.019Z,95382.88
2022-08-07T04:53:03.386Z,95388.78
2022-08-07T04:58:13.926Z,95395.88
2022-08-07T04:58:34.830Z,95394.56
2022-08-07T05:01:02.454Z,95401.44
2022-08-07T05:04:00.969Z,95404.06
2022-08-07T05:06:19.204Z,95400.72
2022-08-07T05:09:00.574Z,95406.31
2022-08-07T05:11:57.216Z,95402.16
2022-08-07T05:14:53.755Z,95405.59
2022-08-07T05:17:00.839Z,95400.38
2022-08-07T05:19:44.208Z,95401.97
2022-08-07T05:22:11.644Z,95406.44
2022-08-07T05:24:40.246Z,95401.66
2022-08-07T05:27:07.076Z,95403.88
2022-08-07T05:29:51.177Z,95400.03
2022-08-07T05:32:19.986Z,95398.25
2022-08-07T05:34:46.330Z,95403.66
2022-08-07T05:37:12.996Z,95401.47
2022-08-07T05:40:06.394Z,95400.16
2022-08-07T05:42:33.700Z,95410.97
2022-08-07T05:45:04.400Z,95406.63
2022-08-07T05:48:01.549Z,95413.00
2022-08-07T05:50:27.662Z,95415.22
2022-08-07T05:52:54.167Z,95415.69
2022-08-07T05:55:21.606Z,95413.91
2022-08-07T05:57:49.312Z,95419.41
2022-08-07T06:00:17.716Z,95420.06
2022-08-07T06:02:44.319Z,95432.69
2022-08-07T06:05:15.682Z,95428.13
2022-08-07T06:08:13.647Z,95432.28
2022-08-07T06:10:28.787Z,95430.66
2022-08-07T06:12:55.154Z,95427.16
2022-08-07T06:15:21.506Z,95427.88
2022-08-07T06:17:53.508Z,95431.56
2022-08-07T06:20:31.689Z,95431.38
2022-08-07T06:23:25.179Z,95426.81
2022-08-07T06:25:54.484Z,95435.28
2022-08-07T06:28:27.493Z,95437.63
2022-08-07T06:30:54.618Z,95433.94
2022-08-07T06:33:22.549Z,95435.00
2022-08-07T06:36:12.454Z,95438.28
2022-08-07T06:38:35.533Z,95440.66
2022-08-07T06:41:02.223Z,95428.63
2022-08-07T06:43:39.982Z,95432.88
2022-08-07T06:46:12.649Z,95440.28
2022-08-07T06:48:41.788Z,95439.44
2022-08-07T06:51:10.685Z,95431.59
2022-08-07T06:55:27.265Z,95443.09
2022-08-07T06:56:28.041Z,95436.03
2022-08-07T07:00:14.271Z,95427.63
2022-08-07T07:01:43.847Z,95430.03
2022-08-07T07:04:32.447Z,95426.91
2022-08-07T07:07:01.172Z,95432.75
2022-08-07T07:09:31.088Z,95434.38
2022-08-07T07:12:08.960Z,95427.13
2022-08-07T07:14:40.387Z,95431.84
2022-08-07T07:17:06.933Z,95426.78
2022-08-07T07:19:57.375Z,95426.19
2022-08-07T07:22:36.031Z,95427.28
2022-08-07T07:26:32.211Z,95430.56
2022-08-07T07:27:58.461Z,95432.19
2022-08-07T07:30:37.931Z,95430.75
2022-08-07T07:33:05.139Z,95425.09
2022-08-07T07:35:33.601Z,95419.50
2022-08-07T07:38:10.226Z,95431.25
2022-08-07T07:40:37.868Z,95428.34
2022-08-07T07:43:15.494Z,95426.00
2022-08-07T07:46:39.984Z,95428.03
2022-08-07T07:48:35.812Z,95422.38
2022-08-07T07:51:02.719Z,95414.94
2022-08-07T07:53:34.818Z,95420.00
2022-08-07T07:56:01.411Z,95427.69
2022-08-07T07:58:27.969Z,95424.94
2022-08-07T08:00:54.394Z,95417.09
2022-08-07T08:04:10.736Z,95418.91
2022-08-07T08:06:07.963Z,95430.03
2022-08-07T08:08:41.980Z,95430.03
2022-08-07T08:11:13.634Z,95435.63
2022-08-07T08:13:54.728Z,95428.75
2022-08-07T08:16:25.158Z,95428.91
2022-08-07T08:18:51.752Z,95429.13
2022-08-07T08:21:18.106Z,95430.53
2022-08-07T08:23:45.590Z,95431.25
2022-08-07T08:26:12.565Z,95434.00
2022-08-07T08:28:43.379Z,95431.06
2022-08-07T08:31:14.819Z,95428.03
2022-08-07T08:33:42.458Z,95435.09
2022-08-07T08:36:15.570Z,95440.59
2022-08-07T08:38:42.151Z,95431.13
2022-08-07T08:41:11.908Z,95437.47
2022-08-07T08:43:42.031Z,95434.75
2022-08-07T08:46:09.706Z,95427.84
2022-08-07T08:48:38.218Z,95428.41
2022-08-07T08:51:14.491Z,95433.31
2022-08-07T08:53:49.566Z,95432.22
2022-08-07T08:56:17.317Z,95428.03
2022-08-07T08:58:43.828Z,95432.25
2022-08-07T09:01:14.533Z,95428.22
2022-08-07T09:03:49.778Z,95422.22
2022-08-07T09:06:18.925Z,95437.31
2022-08-07T09:08:46.743Z,95430.19
2022-08-07T09:11:14.018Z,95425.81
2022-08-07T09:13:50.916Z,95430.16
2022-08-07T09:16:25.686Z,95427.81
2022-08-07T09:18:58.597Z,95427.44
2022-08-07T09:21:34.185Z,95432.56
2022-08-07T09:24:33.529Z,95428.03
2022-08-07T09:26:57.983Z,95429.50
2022-08-07T09:30:03.417Z,95431.06
2022-08-07T09:32:18.889Z,95424.91
2022-08-07T09:34:54.059Z,95435.28
2022-08-07T09:37:20.702Z,95433.47
2022-08-07T09:40:07.054Z,95428.91
2022-08-07T09:42:35.168Z,95423.63
2022-08-07T09:47:24.179Z,95431.44
2022-08-07T09:47:57.734Z,95427.09
2022-08-07T09:50:30.100Z,95429.97
2022-08-07T09:52:56.619Z,95429.31
2022-08-07T09:55:29.395Z,95429.47
2022-08-07T09:58:03.403Z,95431.66
2022-08-07T10:00:30.054Z,95433.28
2022-08-07T10:02:58.503Z,95430.34
2022-08-07T10:05:59.176Z,95424.69
2022-08-07T10:08:21.281Z,95423.06
2022-08-07T10:14:01.315Z,95422.56
2022-08-07T10:16:23.395Z,95422.00
2022-08-07T10:18:50.801Z,95426.69
2022-08-07T10:21:50.323Z,95417.63
2022-08-07T10:24:08.630Z,95420.22
2022-08-07T10:26:36.332Z,95410.03
2022-08-07T10:29:02.724Z,95418.00
2022-08-07T10:31:31.447Z,95406.50
2022-08-07T10:34:15.335Z,95414.31
2022-08-07T10:36:45.585Z,95412.16
2022-08-07T10:39:13.952Z,95405.25
2022-08-07T10:41:47.305Z,95400.25
2022-08-07T10:44:28.714Z,95406.13
2022-08-07T10:47:05.778Z,95405.97
2022-08-07T10:49:49.815Z,95397.41
2022-08-07T10:52:17.663Z,95392.16
2022-08-07T10:54:55.152Z,95396.13
2022-08-07T10:57:34.334Z,95399.72
2022-08-07T11:00:01.233Z,95390.13
2022-08-07T11:02:34.057Z,95382.63
2022-08-07T11:05:07.276Z,95386.88
2022-08-07T11:07:58.441Z,95385.41
2022-08-07T11:10:22.979Z,95393.06
2022-08-07T11:13:01.572Z,95388.88
2022-08-07T11:15:31.627Z,95383.94
2022-08-07T11:18:03.359Z,95383.19
2022-08-07T11:20:30.126Z,95385.25
2022-08-07T11:22:56.946Z,95383.97
2022-08-07T11:25:23.377Z,95385.06
2022-08-07T11:28:03.138Z,95380.84
2022-08-07T11:30:41.412Z,95380.19
2022-08-07T11:33:14.249Z,95381.41
2022-08-07T11:35:59.831Z,95384.19
2022-08-07T11:38:28.357Z,95388.53
2022-08-07T11:40:55.651Z,95393.06
2022-08-07T11:43:41.221Z,95385.63
2022-08-07T11:46:08.854Z,95383.97
2022-08-07T11:48:35.694Z,95385.28
2022-08-07T11:51:03.944Z,95373.94
2022-08-07T11:53:35.611Z,95382.16
2022-08-07T11:56:13.983Z,95383.97
2022-08-07T11:58:49.756Z,95384.13
2022-08-07T12:01:20.230Z,95376.50
2022-08-07T12:03:48.707Z,95377.97
2022-08-07T12:06:39.087Z,95375.75
2022-08-07T12:09:01.445Z,95378.63
2022-08-07T12:11:32.595Z,95374.97
2022-08-07T12:13:59.057Z,95374.66
2022-08-07T12:16:28.835Z,95381.84
2022-08-07T12:18:57.265Z,95379.34
2022-08-07T12:22:37.310Z,95376.09
2022-08-07T12:24:38.030Z,95373.34
2022-08-07T12:26:56.289Z,95373.03
2022-08-07T12:29:38.155Z,95367.41
2022-08-07T12:32:12.080Z,95363.56
2022-08-07T12:34:39.128Z,95368.31
2022-08-07T12:37:08.214Z,95362.53
2022-08-07T12:39:50.714Z,95361.09
2022-08-07T12:42:17.771Z,95360.31
2022-08-07T12:44:53.762Z,95363.66
2022-08-07T12:47:21.850Z,95366.59
2022-08-07T12:50:04.608Z,95357.28
2022-08-07T12:52:34.099Z,95361.72
2022-08-07T12:55:05.695Z,95356.34
2022-08-07T12:58:01.238Z,95348.06
2022-08-07T13:00:32.480Z,95350.38
2022-08-07T13:03:01.111Z,95352.84
2022-08-07T13:06:03.627Z,95344.44
2022-08-07T13:08:19.860Z,95349.09
2022-08-07T13:10:51.814Z,95341.59
2022-08-07T13:13:48.212Z,95339.38
2022-08-07T13:16:05.069Z,95344.25
2022-08-07T13:18:31.425Z,95341.03
2022-08-07T13:21:00.819Z,95341.63
2022-08-07T13:24:01.469Z,95332.00
2022-08-07T13:26:15.947Z,95335.34
2022-08-07T13:28:44.698Z,95324.94
2022-08-07T13:31:13.057Z,95324.72
2022-08-07T13:34:30.667Z,95312.50
2022-08-07T13:36:26.379Z,95320.81
2022-08-07T13:38:54.471Z,95319.16
2022-08-07T13:41:21.064Z,95321.31
2022-08-07T13:43:52.763Z,95315.69
2022-08-07T13:46:28.897Z,95325.53
2022-08-07T13:48:59.423Z,95320.69
2022-08-07T13:51:28.210Z,95309.78
2022-08-07T13:54:16.603Z,95307.66
2022-08-07T13:56:51.624Z,95310.25
2022-08-07T13:59:22.346Z,95320.59
2022-08-07T14:01:51.113Z,95310.88
2022-08-07T14:04:35.565Z,95305.38
2022-08-07T14:07:03.201Z,95294.56
2022-08-07T14:10:03.043Z,95301.25
2022-08-07T14:12:16.581Z,95301.81
2022-08-07T14:14:53.837Z,95308.06
2022-08-07T14:18:12.711Z,95299.34
2022-08-07T14:20:43.297Z,95304.44
2022-08-07T14:22:52.882Z,95306.03
2022-08-07T14:25:19.250Z,95296.47
2022-08-07T14:28:11.203Z,95307.63
2022-08-07T14:30:33.436Z,95297.59
2022-08-07T14:32:59.795Z,95300.13
2022-08-07T14:35:45.716Z,95292.28
2022-08-07T14:38:24.777Z,95291.22
2022-08-07T14:40:56.720Z,95293.06
2022-08-07T14:43:58.116Z,95297.41
2022-08-07T14:46:09.697Z,95299.91
2022-08-07T14:48:36.098Z,95294.50
2022-08-07T14:51:02.765Z,95292.34
2022-08-07T14:54:03.757Z,95293.38
2022-08-07T14:56:29.898Z,95292.84
2022-08-07T14:58:56.900Z,95290.13
2022-08-07T15:01:23.302Z,95292.34
2022-08-07T15:03:52.438Z,95291.94
2022-08-07T15:06:19.571Z,95292.88
2022-08-07T15:08:49.967Z,95295.63
2022-08-07T15:14:09.991Z,95291.44
2022-08-07T15:16:37.091Z,95287.94
2022-08-07T15:19:03.467Z,95288.66
2022-08-07T15:21:58.474Z,95298.44
2022-08-07T15:27:06.209Z,95290.50
2022-08-07T15:35:05.266Z,95283.88
2022-08-07T15:38:04.476Z,95282.16
2022-08-07T15:40:33.888Z,95273.34
2022-08-07T15:43:00.424Z,95282.16
2022-08-07T15:45:55.761Z,95287.94
2022-08-07T15:48:14.177Z,95283.19
2022-08-07T15:51:08.380Z,95292.34
2022-08-07T15:53:52.271Z,95285.78
2022-08-07T15:56:19.414Z,95286.16
2022-08-07T15:58:45.765Z,95298.41
2022-08-07T16:01:20.370Z,95293.38
2022-08-07T16:03:55.877Z,95299.97
2022-08-07T16:06:24.963Z,95290.88
2022-08-07T16:08:52.923Z,95293.28
2022-08-07T16:11:28.743Z,95280.22
2022-08-07T16:13:58.551Z,95282.94
2022-08-07T16:16:47.735Z,95281.81
2022-08-07T16:19:13.016Z,95276.75
2022-08-07T16:22:03.364Z,95279.63
2022-08-07T16:24:34.785Z,95273.06
2022-08-07T16:27:01.749Z,95271.78
2022-08-07T16:30:10.983Z,95267.59
2022-08-07T16:32:34.797Z,95269.41
2022-08-07T16:35:00.754Z,95262.25
2022-08-07T16:38:06.206Z,95260.13
2022-08-07T16:40:23.006Z,95268.31
2022-08-07T16:42:55.354Z,95267.38
2022-08-07T16:48:09.027Z,95256.16
2022-08-07T16:50:52.673Z,95261.81
2022-08-07T16:54:02.946Z,95252.41
2022-08-07T16:56:10.654Z,95259.25
2022-08-07T16:59:02.235Z,95264.69
2022-08-07T17:01:23.362Z,95265.09
2022-08-07T17:03:59.610Z,95256.69
2022-08-07T17:06:31.328Z,95263.34
2022-08-07T17:09:10.552Z,95262.31
2022-08-07T17:12:04.936Z,95258.78
2022-08-07T17:14:26.477Z,95270.50
2022-08-07T17:16:55.539Z,95266.00
2022-08-07T17:20:00.953Z,95269.94
2022-08-07T17:22:10.639Z,95259.25
2022-08-07T17:24:37.066Z,95261.25
2022-08-07T17:27:03.411Z,95255.78
2022-08-07T17:30:14.989Z,95256.47
2022-08-07T17:32:30.380Z,95256.28
2022-08-07T17:35:50.945Z,95254.28
2022-08-07T17:38:09.412Z,95267.16
2022-08-07T17:40:30.807Z,95273.47
2022-08-07T17:42:59.180Z,95276.00
2022-08-07T17:45:26.293Z,95278.53
2022-08-07T17:47:54.352Z,95276.69
2022-08-07T17:50:20.842Z,95278.53
2022-08-07T17:52:47.200Z,95281.25
2022-08-07T17:55:14.367Z,95280.72
2022-08-07T17:58:01.890Z,95279.50
2022-08-07T18:00:34.175Z,95279.41
2022-08-07T18:03:01.143Z,95280.72
2022-08-07T18:06:03.165Z,95271.28
2022-08-07T18:08:24.271Z,95288.91
2022-08-07T18:12:08.214Z,95285.41
2022-08-07T18:13:40.850Z,95290.50
2022-08-07T18:16:07.847Z,95283.25
2022-08-07T18:21:01.511Z,95279.97
2022-08-07T18:21:27.496Z,95291.44
2022-08-07T18:24:07.482Z,95290.56
2022-08-07T18:26:35.184Z,95288.72
2022-08-07T18:29:02.226Z,95290.44
2022-08-07T18:31:33.716Z,95286.94
2022-08-07T18:34:06.157Z,95289.78
2022-08-07T18:36:53.762Z,95290.44
2022-08-07T18:40:06.961Z,95303.31
2022-08-07T18:42:06.876Z,95317.56
2022-08-07T18:45:39.599Z,95300.97
2022-08-07T18:47:25.571Z,95296.84
2022-08-07T18:50:39.550Z,95298.03
2022-08-07T18:53:02.922Z,95305.09
2022-08-07T18:55:42.280Z,95293.78
2022-08-07T18:58:15.138Z,95304.16
2022-08-07T19:00:41.667Z,95298.25
2022-08-07T19:03:20.751Z,95308.28
2022-08-07T19:06:05.041Z,95316.03
2022-08-07T19:08:31.493Z,95316.03
2022-08-07T19:10:58.283Z,95313.13
2022-08-07T19:13:24.623Z,95331.31
2022-08-07T19:16:04.906Z,95319.69
2022-08-07T19:18:37.330Z,95326.09
2022-08-07T19:21:13.946Z,95321.97
2022-08-07T19:24:00.136Z,95329.50
2022-08-07T19:26:28.897Z,95341.38
2022-08-07T19:30:55.224Z,95337.53
2022-08-07T19:32:10.930Z,95337.78
2022-08-07T19:34:33.830Z,95335.06
2022-08-07T19:37:10.211Z,95333.19
2022-08-07T19:39:57.331Z,95340.38
2022-08-07T19:42:29.509Z,95345.22
2022-08-07T19:44:56.998Z,95337.06
2022-08-07T19:47:27.398Z,95338.34
2022-08-07T19:49:58.191Z,95334.84
2022-08-07T19:52:29.792Z,95326.88
2022-08-07T19:54:57.261Z,95341.19
2022-08-07T19:58:02.713Z,95335.28
2022-08-07T20:00:10.553Z,95340.94
2022-08-07T20:02:38.960Z,95342.38
2022-08-07T20:05:07.949Z,95337.84
2022-08-07T20:07:47.219Z,95341.69
2022-08-07T20:10:37.083Z,95350.22
2022-08-07T20:13:00.929Z,95338.06
2022-08-07T20:15:32.946Z,95338.41
2022-08-07T20:18:04.463Z,95343.16
2022-08-07T20:20:30.886Z,95328.41
2022-08-07T20:22:57.252Z,95317.84
2022-08-07T20:25:23.608Z,95315.69
2022-08-07T20:27:54.077Z,95309.66
2022-08-07T20:30:25.091Z,95315.69
2022-08-07T20:32:51.817Z,95317.69
2022-08-07T20:35:22.003Z,95318.41
2022-08-07T20:37:57.725Z,95312.56
2022-08-07T20:40:32.229Z,95315.63
2022-08-07T20:43:00.904Z,95313.28
2022-08-07T20:45:33.538Z,95305.97
2022-08-07T20:48:28.727Z,95311.47
2022-08-07T20:50:56.787Z,95317.25
2022-08-07T20:54:02.212Z,95307.94
2022-08-07T20:56:10.471Z,95326.16
2022-08-07T20:58:36.844Z,95323.44
2022-08-07T21:01:04.817Z,95314.69
2022-08-07T21:03:31.463Z,95312.69
2022-08-07T21:06:01.298Z,95322.03
2022-08-07T21:08:32.296Z,95323.28
2022-08-07T21:11:04.732Z,95321.66
2022-08-07T21:13:43.756Z,95319.13
2022-08-07T21:16:17.447Z,95322.88
2022-08-07T21:18:46.348Z,95322.72
2022-08-07T21:21:16.990Z,95316.19
2022-08-07T21:23:50.431Z,95320.88
2022-08-07T21:26:17.182Z,95308.19
2022-08-07T21:28:48.112Z,95321.25
2022-08-07T21:31:16.871Z,95324.31
2022-08-07T21:33:57.922Z,95308.88
2022-08-07T21:36:31.158Z,95320.88
2022-08-07T21:38:58.923Z,95324.53
2022-08-07T21:41:26.393Z,95329.59
2022-08-07T21:43:55.919Z,95321.41
2022-08-07T21:46:25.014Z,95330.34
2022-08-07T21:48:58.295Z,95321.91
2022-08-07T21:51:25.466Z,95325.53
2022-08-07T21:53:53.011Z,95319.75
2022-08-07T21:56:36.001Z,95327.25
2022-08-07T21:59:03.159Z,95335.13
2022-08-07T22:02:10.345Z,95329.34
2022-08-07T22:04:17.636Z,95340.09
2022-08-07T22:06:46.630Z,95329.56
2022-08-07T22:09:16.343Z,95322.25
2022-08-07T22:12:05.509Z,95337.69
2022-08-07T22:14:34.737Z,95333.06
2022-08-07T22:17:02.447Z,95334.00
2022-08-07T22:19:30.565Z,95331.72
2022-08-07T22:22:02.799Z,95336.97
2022-08-07T22:24:37.043Z,95328.38
2022-08-07T22:27:03.450Z,95327.97
2022-08-07T22:29:33.778Z,95321.91
2022-08-07T22:32:06.384Z,95331.00
2022-08-07T22:34:33.212Z,95323.38
2022-08-07T22:37:02.377Z,95324.03
2022-08-07T22:39:29.426Z,95329.84
2022-08-07T22:42:03.992Z,95322.78
2022-08-07T22:44:58.994Z,95329.09
2022-08-07T22:47:25.874Z,95340.00
2022-08-07T22:49:54.831Z,95334.19
2022-08-07T22:52:37.065Z,95327.94
2022-08-07T22:55:17.768Z,95331.28
2022-08-07T22:57:49.809Z,95332.22
2022-08-07T23:00:16.314Z,95342.19
2022-08-07T23:02:43.083Z,95333.94
2022-08-07T23:06:08.566Z,95337.34
2022-08-07T23:07:57.163Z,95337.25
2022-08-07T23:10:36.450Z,95339.97
2022-08-07T23:13:06.244Z,95333.50
2022-08-07T23:16:06.687Z,95344.81
2022-08-07T23:18:19.321Z,95339.66
2022-08-07T23:20:53.366Z,95335.63
2022-08-07T23:24:05.966Z,95336.53
2022-08-07T23:26:06.411Z,95344.03
2022-08-07T23:28:32.771Z,95345.88
2022-08-07T23:31:05.822Z,95343.72
2022-08-07T23:34:36.192Z,95342.75
2022-08-07T23:36:28.912Z,95345.81
2022-08-07T23:38:56.262Z,95338.78
2022-08-07T23:41:22.616Z,95344.75
2022-08-07T23:43:59.518Z,95352.41
2022-08-07T23:46:27.190Z,95355.25
2022-08-07T23:48:53.775Z,95347.28
2022-08-07T23:52:59.976Z,95350.00
2022-08-07T23:54:19.471Z,95344.94
2022-08-07T23:56:54.087Z,95353.66
